Time;durP1;ratioP1;P1;durP2;ratioP2;P2;SDS_P1;SDS_P2;PMS_P1;PMS_P2;Temp;Humidity;BMP_temperature;BMP_pressure;BME280_temperature;BME280_humidity;BME280_pressure;Samples;Min_cycle;Max_cycle;Signal;HPM_P1;HPM_P2
2022/06/01 00:02:14;;;;;;;5.03;4.50;;;;;;;-145.23;100.00;58621.06;5050831;28;20313;-52
2022/06/01 00:04:40;;;;;;;5.20;4.65;;;;;;;-145.23;100.00;58621.06;5064319;28;20232;-52
2022/06/01 00:07:06;;;;;;;5.20;4.70;;;;;;;-145.23;100.00;58621.06;5055631;28;20234;-51
2022/06/01 00:09:33;;;;;;;5.78;5.20;;;;;;;-145.23;100.00;58621.06;5061734;28;20243;-51
2022/06/01 00:11:59;;;;;;;5.47;4.80;;;;;;;-145.23;100.00;58621.06;5051282;28;20276;-51
2022/06/01 00:14:27;;;;;;;4.82;4.43;;;;;;;-145.23;100.00;58621.06;5061387;28;20235;-53
2022/06/01 00:16:56;;;;;;;5.43;4.90;;;;;;;-145.23;100.00;58621.06;5064011;28;20227;-52
2022/06/01 00:19:22;;;;;;;5.68;5.20;;;;;;;-145.23;100.00;58621.06;5052139;28;20231;-53
2022/06/01 00:24:33;;;;;;;5.47;4.38;;;;;;;-145.23;100.00;58621.06;5057370;28;20238;-55
2022/06/01 00:27:00;;;;;;;5.72;5.13;;;;;;;-145.23;100.00;58621.06;5056594;28;20627;-53
2022/06/01 00:29:27;;;;;;;5.18;4.78;;;;;;;-145.23;100.00;58621.06;5047790;28;20243;-58
2022/06/01 00:31:54;;;;;;;5.43;5.03;;;;;;;-145.23;100.00;58621.06;5058158;28;21965;-52
2022/06/01 00:34:20;;;;;;;5.10;4.68;;;;;;;-145.23;100.00;58621.06;5053660;28;20264;-52
2022/06/01 00:36:47;;;;;;;5.22;4.70;;;;;;;-145.23;100.00;58621.06;5059264;28;20239;-52
2022/06/01 00:39:13;;;;;;;6.70;6.05;;;;;;;-145.23;100.00;58621.06;5061923;28;20231;-53
2022/06/01 00:41:39;;;;;;;4.93;4.53;;;;;;;-145.23;100.00;58621.06;5054628;28;20227;-53
2022/06/01 00:44:06;;;;;;;4.80;4.28;;;;;;;-145.23;100.00;58621.06;5057391;28;20234;-54
2022/06/01 00:46:34;;;;;;;5.50;5.00;;;;;;;-145.23;100.00;58621.06;5058482;28;20227;-51
2022/06/01 00:49:02;;;;;;;5.20;4.70;;;;;;;-145.23;100.00;58621.06;5062504;28;20231;-52
2022/06/01 00:51:29;;;;;;;6.28;5.68;;;;;;;-145.23;100.00;58621.06;5059409;28;20223;-53
2022/06/01 00:53:57;;;;;;;5.88;5.38;;;;;;;-145.23;100.00;58621.06;5058422;28;20243;-52
2022/06/01 00:56:27;;;;;;;7.03;4.90;;;;;;;-145.23;100.00;58621.06;5064155;28;20810;-52
2022/06/01 00:58:56;;;;;;;4.75;4.40;;;;;;;-145.23;100.00;58621.06;5059389;28;20304;-54
2022/06/01 01:01:24;;;;;;;6.32;5.80;;;;;;;-145.23;100.00;58621.06;5058196;28;20289;-51
2022/06/01 01:03:56;;;;;;;4.40;4.10;;;;;;;-145.23;100.00;58621.06;5056545;28;20295;-52
2022/06/01 01:06:25;;;;;;;5.85;4.97;;;;;;;-145.23;100.00;58621.06;5057026;28;20232;-52
2022/06/01 01:08:52;;;;;;;5.72;5.22;;;;;;;-145.23;100.00;58621.06;5050917;28;20299;-52
2022/06/01 01:11:21;;;;;;;4.85;4.20;;;;;;;-145.23;100.00;58621.06;5064766;28;20227;-51
2022/06/01 01:13:50;;;;;;;4.85;4.45;;;;;;;-145.23;100.00;58621.06;5060610;28;20265;-52
2022/06/01 01:16:17;;;;;;;5.93;5.38;;;;;;;-145.23;100.00;58621.06;5059871;28;20239;-51
2022/06/01 01:18:45;;;;;;;5.95;5.35;;;;;;;-145.23;100.00;58621.06;5059045;28;20308;-51
2022/06/01 01:21:18;;;;;;;5.78;5.38;;;;;;;-145.23;100.00;58621.06;5058385;28;20269;-53
2022/06/01 01:23:49;;;;;;;5.50;5.07;;;;;;;-145.23;100.00;58621.06;5053730;28;20297;-53
2022/06/01 01:26:17;;;;;;;5.20;4.80;;;;;;;-145.23;100.00;58621.06;5059696;28;20235;-53
2022/06/01 01:28:43;;;;;;;5.00;4.63;;;;;;;-145.23;100.00;58621.06;5060511;28;20235;-52
2022/06/01 01:31:13;;;;;;;6.60;4.45;;;;;;;-145.23;100.00;58621.06;5054827;28;20296;-52
2022/06/01 01:33:39;;;;;;;5.45;5.05;;;;;;;-145.23;100.00;58621.06;5051602;28;20838;-52
2022/06/01 01:36:08;;;;;;;4.65;4.25;;;;;;;-145.23;100.00;58621.06;5052024;28;20672;-50
2022/06/01 01:38:42;;;;;;;4.35;4.00;;;;;;;-145.23;100.00;58621.06;5054981;28;20345;-52
2022/06/01 01:41:11;;;;;;;5.07;4.68;;;;;;;-145.23;100.00;58621.06;5053990;28;20332;-52
2022/06/01 01:43:44;;;;;;;4.35;4.05;;;;;;;-145.23;100.00;58621.06;5048330;28;20302;-53
2022/06/01 01:46:10;;;;;;;4.85;4.38;;;;;;;-145.23;100.00;58621.06;5057175;28;20227;-52
2022/06/01 01:48:37;;;;;;;5.05;4.65;;;;;;;-145.23;100.00;58621.06;5055445;28;20235;-52
2022/06/01 01:51:05;;;;;;;4.55;4.07;;;;;;;-145.23;100.00;58621.06;5057627;28;20227;-52
2022/06/01 01:53:32;;;;;;;5.72;4.63;;;;;;;-145.23;100.00;58621.06;5055549;28;20235;-51
2022/06/01 01:56:04;;;;;;;4.32;4.03;;;;;;;-145.23;100.00;58621.06;5055157;28;20306;-51
2022/06/01 01:58:41;;;;;;;4.47;4.10;;;;;;;-145.23;100.00;58621.06;5049111;28;20583;-52
2022/06/01 02:01:13;;;;;;;4.55;4.00;;;;;;;-145.23;100.00;58621.06;5058212;28;20237;-53
2022/06/01 02:03:43;;;;;;;5.28;3.83;;;;;;;-145.23;100.00;58621.06;5050702;28;20227;-52
2022/06/01 02:06:14;;;;;;;3.85;3.55;;;;;;;-145.23;100.00;58621.06;5057135;28;20235;-53
2022/06/01 02:08:46;;;;;;;5.13;4.25;;;;;;;-145.23;100.00;58621.06;5049568;28;20887;-54
2022/06/01 02:14:05;;;;;;;3.70;3.42;;;;;;;-145.23;100.00;58621.06;5047160;28;20242;-53
2022/06/01 02:16:35;;;;;;;4.65;4.05;;;;;;;-145.23;100.00;58621.06;5047619;28;20246;-53
2022/06/01 02:19:03;;;;;;;3.95;3.65;;;;;;;-145.23;100.00;58621.06;5052050;28;20239;-51
2022/06/01 02:21:29;;;;;;;3.70;3.47;;;;;;;-145.23;100.00;58621.06;5049821;28;20317;-52
2022/06/01 02:23:58;;;;;;;5.07;3.70;;;;;;;-145.23;100.00;58621.06;5050377;28;20612;-51
2022/06/01 02:26:24;;;;;;;5.72;3.70;;;;;;;-145.23;100.00;58621.06;5056696;28;20235;-51
2022/06/01 02:28:54;;;;;;;4.38;3.67;;;;;;;-145.23;100.00;58621.06;5045959;28;20231;-57
2022/06/01 02:31:22;;;;;;;3.42;3.22;;;;;;;-145.23;100.00;58621.06;5058499;28;20244;-52
2022/06/01 02:33:49;;;;;;;3.53;3.22;;;;;;;-145.23;100.00;58621.06;5047440;28;20284;-53
2022/06/01 02:36:17;;;;;;;3.70;3.50;;;;;;;-145.23;100.00;58621.06;5062244;28;20239;-51
2022/06/01 02:38:46;;;;;;;3.00;2.80;;;;;;;-145.23;100.00;58621.06;5048482;28;20251;-50
2022/06/01 02:43:53;;;;;;;3.35;3.15;;;;;;;-145.23;100.00;58621.06;5053802;28;20226;-52
2022/06/01 02:46:19;;;;;;;3.40;3.10;;;;;;;-145.23;100.00;58621.06;5058205;28;20240;-54
2022/06/01 02:48:47;;;;;;;3.30;3.10;;;;;;;-145.23;100.00;58621.06;5045510;28;20417;-51
2022/06/01 02:51:15;;;;;;;3.03;2.60;;;;;;;-145.23;100.00;58621.06;5052395;28;20254;-53
2022/06/01 02:53:42;;;;;;;3.45;2.65;;;;;;;-145.23;100.00;58621.06;5048922;28;20227;-51
2022/06/01 02:56:08;;;;;;;3.40;3.17;;;;;;;-145.23;100.00;58621.06;5055277;28;20219;-52
2022/06/01 02:58:34;;;;;;;2.80;2.60;;;;;;;-145.23;100.00;58621.06;5051494;28;20267;-53
2022/06/01 03:01:01;;;;;;;3.28;3.08;;;;;;;-145.23;100.00;58621.06;5052158;28;20232;-51
2022/06/01 03:03:28;;;;;;;3.47;3.25;;;;;;;-145.23;100.00;58621.06;5052150;28;20236;-51
2022/06/01 03:05:56;;;;;;;3.30;3.10;;;;;;;-145.23;100.00;58621.06;5054197;28;20269;-53
2022/06/01 03:08:22;;;;;;;2.80;2.60;;;;;;;-145.23;100.00;58621.06;5054830;28;20255;-51
2022/06/01 03:10:49;;;;;;;2.90;2.70;;;;;;;-145.23;100.00;58621.06;5054731;28;20231;-54
2022/06/01 03:13:16;;;;;;;3.00;2.80;;;;;;;-145.23;100.00;58621.06;5055450;28;20275;-53
2022/06/01 03:15:42;;;;;;;2.72;2.53;;;;;;;-145.23;100.00;58621.06;5059348;28;20228;-52
2022/06/01 03:18:09;;;;;;;4.70;3.20;;;;;;;-145.23;100.00;58621.06;5066408;28;20323;-51
2022/06/01 03:20:38;;;;;;;3.28;2.97;;;;;;;-145.23;100.00;58621.06;5059651;28;20728;-59
2022/06/01 03:23:06;;;;;;;3.38;3.08;;;;;;;-145.23;100.00;58621.06;5055946;28;20230;-53
2022/06/01 03:25:32;;;;;;;3.33;3.13;;;;;;;-145.23;100.00;58621.06;5066540;28;20289;-51
2022/06/01 03:28:00;;;;;;;2.42;2.33;;;;;;;-145.23;100.00;58621.06;5059944;28;20709;-52
2022/06/01 03:30:28;;;;;;;2.80;2.60;;;;;;;-145.23;100.00;58621.06;5055077;28;20270;-52
2022/06/01 03:32:55;;;;;;;3.20;3.00;;;;;;;-145.23;100.00;58621.06;5061613;28;20238;-52
2022/06/01 03:35:23;;;;;;;3.15;2.83;;;;;;;-145.23;100.00;58621.06;5066046;28;20239;-53
2022/06/01 03:37:50;;;;;;;3.85;3.55;;;;;;;-145.23;100.00;58621.06;5055433;28;20251;-53
2022/06/01 03:40:20;;;;;;;3.30;3.03;;;;;;;-145.23;100.00;58621.06;5053559;28;20266;-51
2022/06/01 03:42:46;;;;;;;3.42;3.13;;;;;;;-145.23;100.00;58621.06;5058721;28;20246;-51
2022/06/01 03:47:57;;;;;;;3.22;2.92;;;;;;;-145.23;100.00;58621.06;5059664;28;20717;-52
2022/06/01 03:50:25;;;;;;;2.58;2.38;;;;;;;-145.23;100.00;58621.06;5053003;28;20243;-52
2022/06/01 03:52:52;;;;;;;3.30;3.00;;;;;;;-145.23;100.00;58621.06;5059273;28;20236;-51
2022/06/01 03:55:20;;;;;;;3.50;3.20;;;;;;;-145.23;100.00;58621.06;5061548;28;20292;-54
2022/06/01 03:57:47;;;;;;;3.97;3.15;;;;;;;-145.23;100.00;58621.06;5056047;28;20710;-52
2022/06/01 04:00:16;;;;;;;3.47;3.20;;;;;;;-145.23;100.00;58621.06;5058717;28;20301;-53
2022/06/01 04:02:43;;;;;;;3.00;2.80;;;;;;;-145.23;100.00;58621.06;5063944;28;20300;-51
2022/06/01 04:05:10;;;;;;;4.13;3.75;;;;;;;-145.23;100.00;58621.06;5054829;28;20235;-51
2022/06/01 04:07:37;;;;;;;3.10;2.90;;;;;;;-145.23;100.00;58621.06;5057861;28;20223;-53
2022/06/01 04:10:04;;;;;;;3.28;3.08;;;;;;;-145.23;100.00;58621.06;5056536;28;20274;-54
2022/06/01 04:12:32;;;;;;;4.38;3.60;;;;;;;-145.23;100.00;58621.06;5058580;28;20292;-51
2022/06/01 04:14:58;;;;;;;3.92;3.63;;;;;;;-145.23;100.00;58621.06;5058271;28;20239;-51
2022/06/01 04:17:25;;;;;;;3.88;3.65;;;;;;;-145.23;100.00;58621.06;5051032;28;20232;-53
2022/06/01 04:19:51;;;;;;;7.72;4.45;;;;;;;-145.23;100.00;58621.06;5061043;28;20235;-53
2022/06/01 04:22:20;;;;;;;4.60;4.25;;;;;;;-145.23;100.00;58621.06;5059105;28;20248;-52
2022/06/01 04:24:47;;;;;;;4.65;4.25;;;;;;;-145.23;100.00;58621.06;5063300;28;20265;-53
2022/06/01 04:27:13;;;;;;;5.00;4.47;;;;;;;-145.23;100.00;58621.06;5064350;28;20227;-52
2022/06/01 04:29:41;;;;;;;5.60;5.15;;;;;;;-145.23;100.00;58621.06;5056328;28;20274;-52
2022/06/01 04:32:12;;;;;;;5.28;4.88;;;;;;;-145.23;100.00;58621.06;5060516;28;20223;-51
2022/06/01 04:34:39;;;;;;;5.32;4.93;;;;;;;-145.23;100.00;58621.06;5063811;28;20322;-52
2022/06/01 04:37:05;;;;;;;5.50;5.10;;;;;;;-145.23;100.00;58621.06;5053508;28;20247;-52
2022/06/01 04:39:32;;;;;;;5.40;4.63;;;;;;;-145.23;100.00;58621.06;5060021;28;20336;-53
2022/06/01 04:41:58;;;;;;;5.10;4.68;;;;;;;-145.23;100.00;58621.06;5047204;28;20228;-53
2022/06/01 04:44:24;;;;;;;4.25;3.95;;;;;;;-145.23;100.00;58621.06;5049295;28;20662;-52
2022/06/01 04:46:52;;;;;;;5.07;4.57;;;;;;;-145.23;100.00;58621.06;5056300;28;20380;-52
2022/06/01 04:49:18;;;;;;;5.15;4.75;;;;;;;-145.23;100.00;58621.06;5060929;28;20668;-53
2022/06/01 04:51:45;;;;;;;5.88;5.43;;;;;;;-145.23;100.00;58621.06;5055505;28;20657;-54
2022/06/01 04:54:11;;;;;;;5.50;5.10;;;;;;;-145.23;100.00;58621.06;5064046;28;20297;-51
2022/06/01 04:56:38;;;;;;;5.63;5.10;;;;;;;-145.23;100.00;58621.06;5063706;28;20293;-53
2022/06/01 04:59:04;;;;;;;6.82;5.60;;;;;;;-145.23;100.00;58621.06;5061139;28;20273;-53
2022/06/01 05:01:31;;;;;;;4.75;4.35;;;;;;;-145.23;100.00;58621.06;5063999;28;20643;-52
2022/06/01 05:03:58;;;;;;;4.65;4.32;;;;;;;-145.23;100.00;58621.06;5055986;28;20227;-52
2022/06/01 05:06:25;;;;;;;4.25;3.92;;;;;;;-145.23;100.00;58621.06;5049455;28;20231;-53
2022/06/01 05:08:52;;;;;;;3.90;3.60;;;;;;;-145.23;100.00;58621.06;5057125;28;20241;-54
2022/06/01 05:11:19;;;;;;;4.32;4.03;;;;;;;-145.23;100.00;58621.06;5059361;28;20231;-52
2022/06/01 05:13:46;;;;;;;4.05;3.65;;;;;;;-145.23;100.00;58621.06;5057776;28;20235;-52
2022/06/01 05:16:12;;;;;;;4.75;4.43;;;;;;;-145.23;100.00;58621.06;5052311;28;20234;-54
2022/06/01 05:18:39;;;;;;;3.55;3.25;;;;;;;-145.23;100.00;58621.06;5057109;28;20258;-54
2022/06/01 05:21:07;;;;;;;4.03;3.58;;;;;;;-145.23;100.00;58621.06;5062333;28;20239;-52
2022/06/01 05:23:33;;;;;;;3.50;3.20;;;;;;;-145.23;100.00;58621.06;5048945;28;20236;-51
2022/06/01 05:26:00;;;;;;;3.97;3.67;;;;;;;-145.23;100.00;58621.06;5062392;28;20231;-53
2022/06/01 05:28:28;;;;;;;3.80;3.50;;;;;;;-145.23;100.00;58621.06;5056927;28;20236;-53
2022/06/01 05:30:57;;;;;;;3.72;3.42;;;;;;;-145.23;100.00;58621.06;5062889;28;20235;-51
2022/06/01 05:33:23;;;;;;;4.32;3.90;;;;;;;-145.23;100.00;58621.06;5056392;28;20618;-52
2022/06/01 05:35:53;;;;;;;4.22;3.83;;;;;;;-145.23;100.00;58621.06;5054312;28;20706;-52
2022/06/01 05:38:21;;;;;;;6.47;4.07;;;;;;;-145.23;100.00;58621.06;5041557;28;20228;-57
2022/06/01 05:40:47;;;;;;;4.82;4.38;;;;;;;-145.23;100.00;58621.06;5046730;28;20784;-52
2022/06/01 05:43:16;;;;;;;5.18;4.78;;;;;;;-145.23;100.00;58621.06;5052771;28;20306;-52
2022/06/01 05:45:42;;;;;;;9.07;5.43;;;;;;;-145.23;100.00;58621.06;5056926;28;20235;-53
2022/06/01 05:48:11;;;;;;;6.70;6.10;;;;;;;-145.23;100.00;58621.06;5051538;28;20224;-51
2022/06/01 05:50:38;;;;;;;6.03;5.45;;;;;;;-145.23;100.00;58621.06;5055243;28;20259;-54
2022/06/01 05:53:05;;;;;;;4.82;4.53;;;;;;;-145.23;100.00;58621.06;5056684;28;20223;-52
2022/06/01 05:55:32;;;;;;;6.82;6.00;;;;;;;-145.23;100.00;58621.06;5060296;28;20289;-52
2022/06/01 05:57:59;;;;;;;5.80;5.30;;;;;;;-145.23;100.00;58621.06;5057049;28;20298;-53
2022/06/01 06:00:25;;;;;;;5.72;5.32;;;;;;;-145.23;100.00;58621.06;5054772;28;20235;-52
2022/06/01 06:02:52;;;;;;;5.78;5.28;;;;;;;-145.23;100.00;58621.06;5057438;28;20231;-51
2022/06/01 06:08:02;;;;;;;4.72;4.38;;;;;;;-145.23;100.00;58621.06;5052702;28;20226;-52
2022/06/01 06:10:29;;;;;;;4.82;4.32;;;;;;;-145.23;100.00;58621.06;5061777;28;20243;-52
2022/06/01 06:12:57;;;;;;;4.53;4.13;;;;;;;-145.23;100.00;58621.06;5056561;28;20317;-51
2022/06/01 06:15:23;;;;;;;4.25;3.95;;;;;;;-145.23;100.00;58621.06;5058305;28;20533;-52
2022/06/01 06:17:50;;;;;;;9.32;4.97;;;;;;;-145.23;100.00;58621.06;5058839;28;20262;-54
2022/06/01 06:20:16;;;;;;;4.55;4.18;;;;;;;-145.23;100.00;58621.06;5057194;28;20248;-51
2022/06/01 06:22:43;;;;;;;5.00;4.65;;;;;;;-145.23;100.00;58621.06;5053794;28;20266;-51
2022/06/01 06:25:09;;;;;;;3.97;3.67;;;;;;;-145.23;100.00;58621.06;5052262;28;20227;-53
2022/06/01 06:27:36;;;;;;;4.10;3.80;;;;;;;-145.23;100.00;58621.06;5054557;28;20611;-52
2022/06/01 06:30:04;;;;;;;3.90;3.50;;;;;;;-145.23;100.00;58621.06;5049192;28;20385;-51
2022/06/01 06:32:30;;;;;;;4.30;3.95;;;;;;;-145.23;100.00;58621.06;5046233;28;20680;-52
2022/06/01 06:34:57;;;;;;;4.40;4.00;;;;;;;-145.23;100.00;58621.06;5045455;28;20342;-53
2022/06/01 06:37:23;;;;;;;3.78;3.38;;;;;;;-145.23;100.00;58621.06;5059735;28;20235;-53
2022/06/01 06:39:50;;;;;;;4.40;4.10;;;;;;;-145.23;100.00;58621.06;5057711;28;20881;-52
2022/06/01 06:42:16;;;;;;;3.88;3.58;;;;;;;-145.23;100.00;58621.06;5058347;28;20746;-52
2022/06/01 06:44:42;;;;;;;3.70;3.40;;;;;;;-145.23;100.00;58621.06;5049404;28;20309;-53
2022/06/01 06:47:10;;;;;;;3.63;3.33;;;;;;;-145.23;100.00;58621.06;5051496;28;20819;-52
2022/06/01 06:49:37;;;;;;;3.90;3.35;;;;;;;-145.23;100.00;58621.06;5055239;28;20243;-51
2022/06/01 06:52:04;;;;;;;2.97;2.78;;;;;;;-145.23;100.00;58621.06;5051926;28;20227;-50
2022/06/01 06:54:31;;;;;;;2.97;2.78;;;;;;;-145.23;100.00;58621.06;5051382;28;20385;-52
2022/06/01 06:56:57;;;;;;;3.08;2.83;;;;;;;-145.23;100.00;58621.06;5052997;28;20404;-52
2022/06/01 06:59:24;;;;;;;3.22;2.92;;;;;;;-145.23;100.00;58621.06;5055663;28;20258;-50
2022/06/01 07:01:51;;;;;;;3.40;3.10;;;;;;;-145.23;100.00;58621.06;5063103;28;20230;-52
2022/06/01 07:04:18;;;;;;;3.08;2.88;;;;;;;-145.23;100.00;58621.06;5059668;28;20243;-52
2022/06/01 07:06:45;;;;;;;2.67;2.47;;;;;;;-145.23;100.00;58621.06;5060639;28;20231;-52
2022/06/01 07:09:11;;;;;;;3.08;2.88;;;;;;;-145.23;100.00;58621.06;5051371;28;20243;-52
2022/06/01 07:11:39;;;;;;;3.03;2.70;;;;;;;-145.23;100.00;58621.06;5061157;28;20235;-51
2022/06/01 07:14:05;;;;;;;3.13;2.75;;;;;;;-145.23;100.00;58621.06;5052120;28;20251;-52
2022/06/01 07:16:33;;;;;;;3.53;2.53;;;;;;;-145.23;100.00;58621.06;5056200;28;20240;-51
2022/06/01 07:19:01;;;;;;;2.72;2.53;;;;;;;-145.23;100.00;58621.06;5052366;28;20265;-52
2022/06/01 07:21:30;;;;;;;4.20;2.85;;;;;;;-145.23;100.00;58621.06;5062003;28;20235;-50
2022/06/01 07:23:56;;;;;;;2.65;2.33;;;;;;;-145.23;100.00;58621.06;5054985;28;20227;-52
2022/06/01 07:26:28;;;;;;;2.25;2.15;;;;;;;-145.23;100.00;58621.06;5058506;28;20246;-51
2022/06/01 07:28:54;;;;;;;2.40;2.20;;;;;;;-145.23;100.00;58621.06;5052260;28;20259;-53
2022/06/01 07:31:21;;;;;;;3.22;2.65;;;;;;;-145.23;100.00;58621.06;5053194;28;20236;-55
2022/06/01 07:33:48;;;;;;;2.20;2.00;;;;;;;-145.23;100.00;58621.06;5055693;28;20239;-53
2022/06/01 07:36:17;;;;;;;2.75;2.50;;;;;;;-145.23;100.00;58621.06;5055855;28;20250;-52
2022/06/01 07:44:14;;;;;;;2.33;2.13;;;;;;;-145.23;100.00;58621.06;5048105;28;20269;-51
2022/06/01 07:46:40;;;;;;;2.88;2.60;;;;;;;-145.23;100.00;58621.06;5060257;28;20280;-50
2022/06/01 07:49:08;;;;;;;3.83;2.50;;;;;;;-145.23;100.00;58621.06;5052646;28;20319;-51
2022/06/01 07:51:34;;;;;;;2.55;2.35;;;;;;;-145.23;100.00;58621.06;5057841;28;20662;-51
2022/06/01 07:54:02;;;;;;;4.75;2.90;;;;;;;-145.23;100.00;58621.06;5058891;28;20223;-52
2022/06/01 07:56:28;;;;;;;3.75;2.70;;;;;;;-145.23;100.00;58621.06;5056849;28;20232;-51
2022/06/01 07:58:55;;;;;;;3.17;2.88;;;;;;;-145.23;100.00;58621.06;5055399;28;20232;-51
2022/06/01 08:01:25;;;;;;;3.20;2.88;;;;;;;-145.23;100.00;58621.06;5061159;28;20231;-53
2022/06/01 08:03:51;;;;;;;3.95;2.67;;;;;;;-145.23;100.00;58621.06;5053415;28;20231;-52
2022/06/01 08:06:18;;;;;;;3.78;2.83;;;;;;;-145.23;100.00;58621.06;5038340;28;20367;-50
2022/06/01 08:08:44;;;;;;;3.47;3.20;;;;;;;-145.23;100.00;58621.06;5055686;28;20746;-51
2022/06/01 08:11:12;;;;;;;2.70;2.50;;;;;;;-145.23;100.00;58621.06;5057921;28;20878;-51
2022/06/01 08:13:37;;;;;;;3.20;2.90;;;;;;;-145.23;100.00;58621.06;5065405;28;20890;-52
2022/06/01 08:16:04;;;;;;;3.28;2.97;;;;;;;-145.23;100.00;58621.06;5058867;28;20236;-52
2022/06/01 08:18:31;;;;;;;4.40;3.38;;;;;;;-145.23;100.00;58621.06;5056141;28;20235;-53
2022/06/01 08:20:57;;;;;;;2.70;2.55;;;;;;;-145.23;100.00;58621.06;5054470;28;20631;-52
2022/06/01 08:23:26;;;;;;;3.50;3.15;;;;;;;-145.23;100.00;58621.06;5052197;28;20228;-51
2022/06/01 08:25:52;;;;;;;4.03;2.78;;;;;;;-145.23;100.00;58621.06;5061562;28;20725;-53
2022/06/01 08:28:20;;;;;;;3.53;3.22;;;;;;;-145.23;100.00;58621.06;5056729;28;20243;-52
2022/06/01 08:30:48;;;;;;;4.57;3.03;;;;;;;-145.23;100.00;58621.06;5051932;28;20238;-52
2022/06/01 08:33:15;;;;;;;3.63;3.25;;;;;;;-145.23;100.00;58621.06;5053956;28;20281;-52
2022/06/01 08:35:43;;;;;;;3.10;2.90;;;;;;;-145.23;100.00;58621.06;5061914;28;20235;-50
2022/06/01 08:38:09;;;;;;;3.38;2.50;;;;;;;-145.23;100.00;58621.06;5054914;28;20235;-52
2022/06/01 08:40:44;;;;;;;2.67;2.22;;;;;;;-145.23;100.00;58621.06;5050796;28;20232;-52
2022/06/01 08:43:13;;;;;;;4.03;2.80;;;;;;;-145.23;100.00;58621.06;5060243;28;20650;-52
2022/06/01 08:45:41;;;;;;;2.55;2.35;;;;;;;-145.23;100.00;58621.06;5056325;28;20227;-51
2022/06/01 08:48:09;;;;;;;2.67;2.50;;;;;;;-145.23;100.00;58621.06;5059374;28;20265;-52
2022/06/01 08:50:38;;;;;;;2.65;2.45;;;;;;;-145.23;100.00;58621.06;5050282;28;20239;-52
2022/06/01 08:53:06;;;;;;;2.50;2.30;;;;;;;-145.23;100.00;58621.06;5057859;28;20259;-51
2022/06/01 08:55:45;;;;;;;3.00;2.70;;;;;;;-145.23;100.00;58621.06;5062669;28;20728;-53
2022/06/01 08:58:15;;;;;;;2.78;2.58;;;;;;;-145.23;100.00;58621.06;5058577;28;20270;-52
2022/06/01 09:00:49;;;;;;;2.17;2.05;;;;;;;-145.23;100.00;58621.06;5064770;28;20286;-52
2022/06/01 09:03:24;;;;;;;2.83;2.63;;;;;;;-145.23;100.00;58621.06;5053021;28;20231;-51
2022/06/01 09:05:53;;;;;;;2.53;2.33;;;;;;;-145.23;100.00;58621.06;5049382;28;20231;-51
2022/06/01 09:08:26;;;;;;;2.80;2.50;;;;;;;-145.23;100.00;58621.06;5066178;28;20235;-53
2022/06/01 09:11:01;;;;;;;2.63;2.38;;;;;;;-145.23;100.00;58621.06;5047915;28;20290;-54
2022/06/01 09:13:33;;;;;;;2.65;2.10;;;;;;;-145.23;100.00;58621.06;5046823;28;20444;-51
2022/06/01 09:16:04;;;;;;;4.05;2.67;;;;;;;-145.23;100.00;58621.06;5056543;28;20564;-52
2022/06/01 09:18:35;;;;;;;2.40;2.10;;;;;;;-145.23;100.00;58621.06;5058194;28;20239;-51
2022/06/01 09:23:47;;;;;;;2.03;1.83;;;;;;;-145.23;100.00;58621.06;5060165;28;20234;-52
2022/06/01 09:26:24;;;;;;;2.63;2.42;;;;;;;-145.23;100.00;58621.06;5053116;28;20232;-52
2022/06/01 09:28:55;;;;;;;2.45;2.00;;;;;;;-145.23;100.00;58621.06;5057352;28;20234;-52
2022/06/01 09:31:27;;;;;;;3.05;2.00;;;;;;;-145.23;100.00;58621.06;5063202;28;20314;-51
2022/06/01 09:33:53;;;;;;;3.00;1.85;;;;;;;-145.23;100.00;58621.06;5053261;28;20729;-52
2022/06/01 09:36:27;;;;;;;2.72;2.47;;;;;;;-145.23;100.00;58621.06;5053049;28;20239;-52
2022/06/01 09:38:56;;;;;;;3.85;1.73;;;;;;;-145.23;100.00;58621.06;5049557;28;20230;-52
2022/06/01 09:41:30;;;;;;;2.90;2.35;;;;;;;-145.23;100.00;58621.06;5059085;28;20314;-56
2022/06/01 09:43:57;;;;;;;2.05;1.83;;;;;;;-145.23;100.00;58621.06;5057667;28;20231;-52
2022/06/01 09:46:33;;;;;;;2.40;2.20;;;;;;;-145.23;100.00;58621.06;5061092;28;20281;-52
2022/06/01 09:49:00;;;;;;;3.08;1.75;;;;;;;-145.23;100.00;58621.06;5053171;28;20258;-52
2022/06/01 09:51:26;;;;;;;1.92;1.73;;;;;;;-145.23;100.00;58621.06;5055507;28;20284;-52
2022/06/01 09:53:54;;;;;;;2.40;2.25;;;;;;;-145.23;100.00;58621.06;5058774;28;20231;-53
2022/06/01 09:56:31;;;;;;;5.43;1.98;;;;;;;-145.23;100.00;58621.06;5061700;28;20239;-52
2022/06/01 10:07:21;;;;;;;2.10;1.90;;;;;;;-145.23;100.00;58621.06;5055970;28;20238;-52
2022/06/01 10:09:51;;;;;;;3.15;2.00;;;;;;;-145.23;100.00;58621.06;5056536;28;20227;-52
2022/06/01 10:12:24;;;;;;;3.30;2.00;;;;;;;-145.23;100.00;58621.06;5061336;28;20681;-52
2022/06/01 10:14:53;;;;;;;1.77;1.67;;;;;;;-145.23;100.00;58621.06;5065478;28;20254;-52
2022/06/01 10:17:23;;;;;;;1.95;1.85;;;;;;;-145.23;100.00;58621.06;5055630;28;20543;-52
2022/06/01 10:19:55;;;;;;;4.00;1.70;;;;;;;-145.23;100.00;58621.06;5045511;28;20284;-51
2022/06/01 10:22:29;;;;;;;1.80;1.50;;;;;;;-145.23;100.00;58621.06;5050510;28;20246;-51
2022/06/01 10:24:58;;;;;;;1.80;1.60;;;;;;;-145.23;100.00;58621.06;5050627;28;20297;-51
2022/06/01 10:27:28;;;;;;;1.73;1.48;;;;;;;-145.23;100.00;58621.06;5060031;28;20777;-53
2022/06/01 10:30:06;;;;;;;2.85;1.95;;;;;;;-145.23;100.00;58621.06;5045777;28;20845;-52
2022/06/01 10:32:42;;;;;;;1.75;1.65;;;;;;;-145.23;100.00;58621.06;5049915;28;20289;-53
2022/06/01 10:35:18;;;;;;;2.80;1.77;;;;;;;-145.23;100.00;58621.06;5064977;28;20226;-52
2022/06/01 10:37:55;;;;;;;2.45;2.25;;;;;;;-145.23;100.00;58621.06;5055939;28;20731;-51
2022/06/01 10:40:24;;;;;;;2.95;2.42;;;;;;;-145.23;100.00;58621.06;5060927;28;20229;-51
2022/06/01 10:45:45;;;;;;;2.38;2.03;;;;;;;-145.23;100.00;58621.06;5045092;28;20280;-52
2022/06/01 10:48:14;;;;;;;2.22;2.03;;;;;;;-145.23;100.00;58621.06;5065149;28;20938;-52
2022/06/01 10:50:46;;;;;;;2.35;2.20;;;;;;;-145.23;100.00;58621.06;5061383;28;20584;-51
2022/06/01 10:53:17;;;;;;;4.63;2.15;;;;;;;-145.23;100.00;58621.06;5059238;28;20245;-51
2022/06/01 10:55:45;;;;;;;4.15;2.35;;;;;;;-145.23;100.00;58621.06;5051866;28;20236;-51
2022/06/01 10:58:17;;;;;;;3.30;3.00;;;;;;;-145.23;100.00;58621.06;5055952;28;20263;-51
2022/06/01 11:00:49;;;;;;;3.88;2.25;;;;;;;-145.23;100.00;58621.06;5052233;28;20574;-51
2022/06/01 11:03:48;;;;;;;3.30;2.25;;;;;;;-145.23;100.00;58621.06;5055936;28;20224;-51
2022/06/01 11:06:26;;;;;;;3.30;2.22;;;;;;;-145.23;100.00;58621.06;5037820;28;20779;-52
2022/06/01 11:08:59;;;;;;;2.40;2.20;;;;;;;-145.23;100.00;58621.06;5051363;28;20232;-52
2022/06/01 11:11:33;;;;;;;2.83;2.60;;;;;;;-145.23;100.00;58621.06;5047229;28;20223;-51
2022/06/01 11:14:12;;;;;;;4.03;2.55;;;;;;;-145.23;100.00;58621.06;5046927;28;20227;-52
2022/06/01 11:16:47;;;;;;;2.47;2.38;;;;;;;-145.23;100.00;58621.06;5053900;28;20729;-52
2022/06/01 11:19:26;;;;;;;3.05;2.58;;;;;;;-145.23;100.00;58621.06;5049591;28;20677;-51
2022/06/01 11:21:56;;;;;;;3.10;2.78;;;;;;;-145.23;100.00;58621.06;5052037;28;20231;-53
2022/06/01 11:24:41;;;;;;;2.50;2.30;;;;;;;-145.23;100.00;58621.06;5050901;28;20239;-52
2022/06/01 11:27:18;;;;;;;3.15;2.80;;;;;;;-145.23;100.00;58621.06;5053727;28;20231;-50
2022/06/01 11:29:57;;;;;;;4.53;2.83;;;;;;;-145.23;100.00;58621.06;5047272;28;20270;-52
2022/06/01 11:32:27;;;;;;;4.68;2.63;;;;;;;-145.23;100.00;58621.06;5048358;28;20251;-51
2022/06/01 11:35:00;;;;;;;3.13;2.83;;;;;;;-145.23;100.00;58621.06;5058208;28;20235;-52
2022/06/01 11:37:29;;;;;;;2.88;2.60;;;;;;;-145.23;100.00;58621.06;5055147;28;20244;-53
2022/06/01 11:40:00;;;;;;;2.85;2.63;;;;;;;-145.23;100.00;58621.06;5054955;28;20690;-52
2022/06/01 11:42:30;;;;;;;3.72;2.53;;;;;;;-145.23;100.00;58621.06;5050014;28;20259;-52
2022/06/01 11:45:00;;;;;;;8.10;2.78;;;;;;;-145.23;100.00;58621.06;5058715;28;20251;-53
2022/06/01 11:47:27;;;;;;;2.45;2.25;;;;;;;-145.23;100.00;58621.06;5051148;28;20224;-51
2022/06/01 11:50:18;;;;;;;2.00;1.90;;;;;;;-145.23;100.00;58621.06;5058065;28;20658;-51